sensor_id;sensor_type;location;lat;lon;timestamp;temperature;humidity
74657;DHT22;63185;45.642;13.764;2023-03-31T00:01:25;15.50;67.60
74657;DHT22;63185;45.642;13.764;2023-03-31T00:03:50;15.50;67.60
74657;DHT22;63185;45.642;13.764;2023-03-31T00:06:16;15.50;67.50
74657;DHT22;63185;45.642;13.764;2023-03-31T00:08:44;15.60;67.50
74657;DHT22;63185;45.642;13.764;2023-03-31T00:11:10;15.60;67.60
74657;DHT22;63185;45.642;13.764;2023-03-31T00:13:37;15.60;67.60
74657;DHT22;63185;45.642;13.764;2023-03-31T00:16:05;15.60;67.60
74657;DHT22;63185;45.642;13.764;2023-03-31T00:18:32;15.60;67.70
74657;DHT22;63185;45.642;13.764;2023-03-31T00:21:15;15.60;67.60
74657;DHT22;63185;45.642;13.764;2023-03-31T00:23:56;15.60;67.80
74657;DHT22;63185;45.642;13.764;2023-03-31T00:26:22;15.60;67.90
74657;DHT22;63185;45.642;13.764;2023-03-31T00:28:49;15.60;67.80
74657;DHT22;63185;45.642;13.764;2023-03-31T00:31:15;15.60;67.80
74657;DHT22;63185;45.642;13.764;2023-03-31T00:33:41;15.60;68.00
74657;DHT22;63185;45.642;13.764;2023-03-31T00:36:07;15.50;68.20
74657;DHT22;63185;45.642;13.764;2023-03-31T00:38:33;15.60;68.00
74657;DHT22;63185;45.642;13.764;2023-03-31T00:41:00;15.60;68.10
74657;DHT22;63185;45.642;13.764;2023-03-31T00:43:36;15.60;68.30
74657;DHT22;63185;45.642;13.764;2023-03-31T00:46:23;15.50;68.60
74657;DHT22;63185;45.642;13.764;2023-03-31T00:48:55;15.60;68.50
74657;DHT22;63185;45.642;13.764;2023-03-31T00:51:26;15.60;68.50
74657;DHT22;63185;45.642;13.764;2023-03-31T00:53:56;15.60;68.50
74657;DHT22;63185;45.642;13.764;2023-03-31T00:56:26;15.60;68.50
74657;DHT22;63185;45.642;13.764;2023-03-31T00:58:54;15.60;68.40
74657;DHT22;63185;45.642;13.764;2023-03-31T01:01:22;15.60;68.60
74657;DHT22;63185;45.642;13.764;2023-03-31T01:03:52;15.70;68.60
74657;DHT22;63185;45.642;13.764;2023-03-31T01:06:18;15.60;69.20
74657;DHT22;63185;45.642;13.764;2023-03-31T01:08:48;15.60;69.70
74657;DHT22;63185;45.642;13.764;2023-03-31T01:11:17;15.60;70.00
74657;DHT22;63185;45.642;13.764;2023-03-31T01:13:44;15.60;70.10
74657;DHT22;63185;45.642;13.764;2023-03-31T01:16:14;15.60;70.30
74657;DHT22;63185;45.642;13.764;2023-03-31T01:18:40;15.60;70.60
74657;DHT22;63185;45.642;13.764;2023-03-31T01:27:05;15.60;70.70
74657;DHT22;63185;45.642;13.764;2023-03-31T01:30:21;15.60;71.40
74657;DHT22;63185;45.642;13.764;2023-03-31T01:56:45;15.60;71.40
74657;DHT22;63185;45.642;13.764;2023-03-31T01:58:53;15.60;71.40
74657;DHT22;63185;45.642;13.764;2023-03-31T02:01:28;15.60;71.50
74657;DHT22;63185;45.642;13.764;2023-03-31T02:03:59;15.60;71.50
74657;DHT22;63185;45.642;13.764;2023-03-31T02:06:29;15.60;72.20
74657;DHT22;63185;45.642;13.764;2023-03-31T02:09:08;15.60;72.50
74657;DHT22;63185;45.642;13.764;2023-03-31T02:11:37;15.60;72.90
74657;DHT22;63185;45.642;13.764;2023-03-31T02:14:08;15.60;73.50
74657;DHT22;63185;45.642;13.764;2023-03-31T02:16:36;15.50;73.80
74657;DHT22;63185;45.642;13.764;2023-03-31T02:19:07;15.50;73.60
74657;DHT22;63185;45.642;13.764;2023-03-31T02:21:36;15.50;73.80
74657;DHT22;63185;45.642;13.764;2023-03-31T02:24:04;15.40;74.40
74657;DHT22;63185;45.642;13.764;2023-03-31T02:26:36;15.40;74.30
74657;DHT22;63185;45.642;13.764;2023-03-31T02:29:04;15.40;74.20
74657;DHT22;63185;45.642;13.764;2023-03-31T02:31:46;15.40;74.00
74657;DHT22;63185;45.642;13.764;2023-03-31T02:34:13;15.40;73.70
74657;DHT22;63185;45.642;13.764;2023-03-31T02:36:41;15.40;73.50
74657;DHT22;63185;45.642;13.764;2023-03-31T02:39:10;15.40;73.10
74657;DHT22;63185;45.642;13.764;2023-03-31T02:41:36;15.40;72.90
74657;DHT22;63185;45.642;13.764;2023-03-31T02:44:03;15.40;73.10
74657;DHT22;63185;45.642;13.764;2023-03-31T02:46:29;15.50;73.00
74657;DHT22;63185;45.642;13.764;2023-03-31T02:48:56;15.40;73.30
74657;DHT22;63185;45.642;13.764;2023-03-31T02:54:34;15.40;72.50
74657;DHT22;63185;45.642;13.764;2023-03-31T03:07:50;15.60;71.90
74657;DHT22;63185;45.642;13.764;2023-03-31T03:13:17;15.50;72.10
74657;DHT22;63185;45.642;13.764;2023-03-31T03:15:47;15.50;71.90
74657;DHT22;63185;45.642;13.764;2023-03-31T03:18:14;15.50;72.10
74657;DHT22;63185;45.642;13.764;2023-03-31T03:20:43;15.60;71.80
74657;DHT22;63185;45.642;13.764;2023-03-31T03:23:15;15.50;71.70
74657;DHT22;63185;45.642;13.764;2023-03-31T03:25:41;15.60;71.80
74657;DHT22;63185;45.642;13.764;2023-03-31T03:28:07;15.50;71.70
74657;DHT22;63185;45.642;13.764;2023-03-31T03:30:33;15.60;71.60
74657;DHT22;63185;45.642;13.764;2023-03-31T03:32:58;15.50;71.50
74657;DHT22;63185;45.642;13.764;2023-03-31T03:35:24;15.60;71.60
74657;DHT22;63185;45.642;13.764;2023-03-31T03:37:50;15.60;71.90
74657;DHT22;63185;45.642;13.764;2023-03-31T03:40:16;15.60;71.60
74657;DHT22;63185;45.642;13.764;2023-03-31T03:42:42;15.60;71.50
74657;DHT22;63185;45.642;13.764;2023-03-31T03:45:08;15.60;71.50
74657;DHT22;63185;45.642;13.764;2023-03-31T03:47:34;15.60;71.70
74657;DHT22;63185;45.642;13.764;2023-03-31T03:50:01;15.50;71.60
74657;DHT22;63185;45.642;13.764;2023-03-31T03:52:27;15.60;71.40
74657;DHT22;63185;45.642;13.764;2023-03-31T03:54:52;15.60;71.10
74657;DHT22;63185;45.642;13.764;2023-03-31T03:57:18;15.60;71.10
74657;DHT22;63185;45.642;13.764;2023-03-31T03:59:44;15.50;71.20
74657;DHT22;63185;45.642;13.764;2023-03-31T04:02:10;15.60;71.30
74657;DHT22;63185;45.642;13.764;2023-03-31T04:04:35;15.50;71.60
74657;DHT22;63185;45.642;13.764;2023-03-31T04:07:01;15.50;72.00
74657;DHT22;63185;45.642;13.764;2023-03-31T04:09:27;15.50;71.60
74657;DHT22;63185;45.642;13.764;2023-03-31T04:11:53;15.40;71.60
74657;DHT22;63185;45.642;13.764;2023-03-31T04:14:18;15.40;71.30
74657;DHT22;63185;45.642;13.764;2023-03-31T04:16:44;15.40;71.00
74657;DHT22;63185;45.642;13.764;2023-03-31T04:19:12;15.40;70.90
74657;DHT22;63185;45.642;13.764;2023-03-31T04:21:38;15.50;70.80
74657;DHT22;63185;45.642;13.764;2023-03-31T04:24:10;15.50;70.70
74657;DHT22;63185;45.642;13.764;2023-03-31T04:26:40;15.50;70.60
74657;DHT22;63185;45.642;13.764;2023-03-31T04:29:13;15.50;70.40
74657;DHT22;63185;45.642;13.764;2023-03-31T04:31:41;15.50;70.20
74657;DHT22;63185;45.642;13.764;2023-03-31T04:34:12;15.50;70.50
74657;DHT22;63185;45.642;13.764;2023-03-31T04:36:43;15.50;70.50
74657;DHT22;63185;45.642;13.764;2023-03-31T04:39:15;15.50;70.50
74657;DHT22;63185;45.642;13.764;2023-03-31T04:41:41;15.40;70.50
74657;DHT22;63185;45.642;13.764;2023-03-31T04:44:07;15.50;70.50
74657;DHT22;63185;45.642;13.764;2023-03-31T04:46:34;15.40;70.40
74657;DHT22;63185;45.642;13.764;2023-03-31T04:49:00;15.50;70.30
74657;DHT22;63185;45.642;13.764;2023-03-31T04:51:27;15.50;70.30
74657;DHT22;63185;45.642;13.764;2023-03-31T04:53:53;15.50;70.40
74657;DHT22;63185;45.642;13.764;2023-03-31T04:56:19;15.40;70.50
74657;DHT22;63185;45.642;13.764;2023-03-31T04:58:45;15.40;70.20
74657;DHT22;63185;45.642;13.764;2023-03-31T05:01:11;15.50;70.10
74657;DHT22;63185;45.642;13.764;2023-03-31T05:03:43;15.40;70.00
74657;DHT22;63185;45.642;13.764;2023-03-31T05:06:09;15.50;70.00
74657;DHT22;63185;45.642;13.764;2023-03-31T05:08:35;15.50;69.80
74657;DHT22;63185;45.642;13.764;2023-03-31T05:11:02;15.40;70.00
74657;DHT22;63185;45.642;13.764;2023-03-31T05:13:28;15.40;69.80
74657;DHT22;63185;45.642;13.764;2023-03-31T05:15:54;15.40;70.10
74657;DHT22;63185;45.642;13.764;2023-03-31T05:18:19;15.40;70.00
74657;DHT22;63185;45.642;13.764;2023-03-31T05:20:45;15.50;69.70
74657;DHT22;63185;45.642;13.764;2023-03-31T05:23:11;15.50;69.50
74657;DHT22;63185;45.642;13.764;2023-03-31T05:25:37;15.50;69.50
74657;DHT22;63185;45.642;13.764;2023-03-31T05:28:03;15.60;69.60
74657;DHT22;63185;45.642;13.764;2023-03-31T05:30:29;15.60;69.20
74657;DHT22;63185;45.642;13.764;2023-03-31T05:32:55;15.60;69.10
74657;DHT22;63185;45.642;13.764;2023-03-31T05:35:21;15.60;68.90
74657;DHT22;63185;45.642;13.764;2023-03-31T05:37:47;15.60;69.00
74657;DHT22;63185;45.642;13.764;2023-03-31T05:40:13;15.70;69.10
74657;DHT22;63185;45.642;13.764;2023-03-31T05:42:39;15.70;68.70
74657;DHT22;63185;45.642;13.764;2023-03-31T05:45:06;15.80;68.40
74657;DHT22;63185;45.642;13.764;2023-03-31T05:47:32;15.80;68.60
74657;DHT22;63185;45.642;13.764;2023-03-31T05:49:58;15.80;68.20
74657;DHT22;63185;45.642;13.764;2023-03-31T05:52:24;15.90;68.30
74657;DHT22;63185;45.642;13.764;2023-03-31T05:54:49;15.90;68.00
74657;DHT22;63185;45.642;13.764;2023-03-31T05:57:15;15.90;68.10
74657;DHT22;63185;45.642;13.764;2023-03-31T05:59:41;16.00;67.80
74657;DHT22;63185;45.642;13.764;2023-03-31T06:02:07;16.10;67.50
74657;DHT22;63185;45.642;13.764;2023-03-31T06:04:33;16.20;67.30
74657;DHT22;63185;45.642;13.764;2023-03-31T06:06:59;16.20;67.20
74657;DHT22;63185;45.642;13.764;2023-03-31T06:09:25;16.40;66.90
74657;DHT22;63185;45.642;13.764;2023-03-31T06:11:51;16.50;66.60
74657;DHT22;63185;45.642;13.764;2023-03-31T06:14:16;16.60;66.40
74657;DHT22;63185;45.642;13.764;2023-03-31T06:16:42;16.50;66.20
74657;DHT22;63185;45.642;13.764;2023-03-31T06:19:08;16.60;66.10
74657;DHT22;63185;45.642;13.764;2023-03-31T06:21:33;16.50;66.30
74657;DHT22;63185;45.642;13.764;2023-03-31T06:23:59;16.50;66.60
74657;DHT22;63185;45.642;13.764;2023-03-31T06:26:25;16.50;66.70
74657;DHT22;63185;45.642;13.764;2023-03-31T06:28:52;16.50;66.60
74657;DHT22;63185;45.642;13.764;2023-03-31T06:31:21;16.50;66.70
74657;DHT22;63185;45.642;13.764;2023-03-31T06:33:48;16.50;66.80
74657;DHT22;63185;45.642;13.764;2023-03-31T06:36:16;16.60;66.30
74657;DHT22;63185;45.642;13.764;2023-03-31T06:38:42;16.60;66.40
74657;DHT22;63185;45.642;13.764;2023-03-31T06:41:10;16.60;66.20
74657;DHT22;63185;45.642;13.764;2023-03-31T06:43:36;16.60;66.70
74657;DHT22;63185;45.642;13.764;2023-03-31T06:46:02;16.60;66.50
74657;DHT22;63185;45.642;13.764;2023-03-31T06:48:29;16.50;66.50
74657;DHT22;63185;45.642;13.764;2023-03-31T06:50:58;16.50;66.80
74657;DHT22;63185;45.642;13.764;2023-03-31T06:53:23;16.50;67.00
74657;DHT22;63185;45.642;13.764;2023-03-31T06:55:49;16.60;66.70
74657;DHT22;63185;45.642;13.764;2023-03-31T06:58:15;16.50;66.90
74657;DHT22;63185;45.642;13.764;2023-03-31T07:00:41;16.70;66.40
74657;DHT22;63185;45.642;13.764;2023-03-31T07:03:07;16.70;66.20
74657;DHT22;63185;45.642;13.764;2023-03-31T07:05:33;16.80;66.00
74657;DHT22;63185;45.642;13.764;2023-03-31T07:08:01;16.80;65.70
74657;DHT22;63185;45.642;13.764;2023-03-31T07:10:28;16.90;65.70
74657;DHT22;63185;45.642;13.764;2023-03-31T07:12:54;16.90;65.60
74657;DHT22;63185;45.642;13.764;2023-03-31T07:15:20;16.80;65.50
74657;DHT22;63185;45.642;13.764;2023-03-31T07:17:46;16.90;65.50
74657;DHT22;63185;45.642;13.764;2023-03-31T07:20:16;17.10;65.60
74657;DHT22;63185;45.642;13.764;2023-03-31T07:22:46;17.10;65.40
74657;DHT22;63185;45.642;13.764;2023-03-31T07:25:14;17.10;65.40
74657;DHT22;63185;45.642;13.764;2023-03-31T07:27:40;17.20;64.90
74657;DHT22;63185;45.642;13.764;2023-03-31T07:30:08;17.10;65.00
74657;DHT22;63185;45.642;13.764;2023-03-31T07:32:33;16.90;65.50
74657;DHT22;63185;45.642;13.764;2023-03-31T07:35:04;16.90;65.70
74657;DHT22;63185;45.642;13.764;2023-03-31T07:37:34;16.90;65.60
74657;DHT22;63185;45.642;13.764;2023-03-31T07:40:01;16.80;66.00
74657;DHT22;63185;45.642;13.764;2023-03-31T07:42:26;16.70;65.80
74657;DHT22;63185;45.642;13.764;2023-03-31T07:44:52;16.70;66.10
74657;DHT22;63185;45.642;13.764;2023-03-31T07:47:18;16.70;66.50
74657;DHT22;63185;45.642;13.764;2023-03-31T07:49:43;16.70;66.60
74657;DHT22;63185;45.642;13.764;2023-03-31T07:52:09;16.80;66.30
74657;DHT22;63185;45.642;13.764;2023-03-31T07:54:34;16.70;66.40
74657;DHT22;63185;45.642;13.764;2023-03-31T07:57:00;16.80;66.30
74657;DHT22;63185;45.642;13.764;2023-03-31T07:59:28;16.80;66.00
74657;DHT22;63185;45.642;13.764;2023-03-31T08:01:54;16.80;66.30
74657;DHT22;63185;45.642;13.764;2023-03-31T08:04:20;16.90;66.10
74657;DHT22;63185;45.642;13.764;2023-03-31T08:06:46;16.90;65.80
74657;DHT22;63185;45.642;13.764;2023-03-31T08:09:12;17.10;65.70
74657;DHT22;63185;45.642;13.764;2023-03-31T08:11:37;17.20;65.10
74657;DHT22;63185;45.642;13.764;2023-03-31T08:14:03;17.20;64.90
74657;DHT22;63185;45.642;13.764;2023-03-31T08:16:29;17.10;65.10
74657;DHT22;63185;45.642;13.764;2023-03-31T08:18:54;17.00;65.50
74657;DHT22;63185;45.642;13.764;2023-03-31T08:21:20;16.70;66.10
74657;DHT22;63185;45.642;13.764;2023-03-31T08:23:46;16.80;66.30
74657;DHT22;63185;45.642;13.764;2023-03-31T08:26:16;16.70;66.50
74657;DHT22;63185;45.642;13.764;2023-03-31T08:28:48;16.80;66.50
74657;DHT22;63185;45.642;13.764;2023-03-31T08:31:15;16.60;66.20
74657;DHT22;63185;45.642;13.764;2023-03-31T08:33:43;16.60;66.70
74657;DHT22;63185;45.642;13.764;2023-03-31T08:36:09;16.40;67.00
74657;DHT22;63185;45.642;13.764;2023-03-31T08:38:36;16.60;66.90
74657;DHT22;63185;45.642;13.764;2023-03-31T08:41:05;16.70;66.70
74657;DHT22;63185;45.642;13.764;2023-03-31T08:43:44;16.90;66.10
74657;DHT22;63185;45.642;13.764;2023-03-31T08:46:14;17.30;65.50
74657;DHT22;63185;45.642;13.764;2023-03-31T08:48:46;17.60;64.30
74657;DHT22;63185;45.642;13.764;2023-03-31T08:51:35;17.60;64.00
74657;DHT22;63185;45.642;13.764;2023-03-31T08:54:32;17.60;64.10
74657;DHT22;63185;45.642;13.764;2023-03-31T08:56:58;17.60;64.00
74657;DHT22;63185;45.642;13.764;2023-03-31T09:12:51;18.20;62.80
74657;DHT22;63185;45.642;13.764;2023-03-31T09:15:41;18.30;62.10
74657;DHT22;63185;45.642;13.764;2023-03-31T09:18:32;18.60;61.50
74657;DHT22;63185;45.642;13.764;2023-03-31T09:24:17;18.90;60.60
74657;DHT22;63185;45.642;13.764;2023-03-31T09:27:14;18.80;60.80
74657;DHT22;63185;45.642;13.764;2023-03-31T09:29:49;18.50;61.30
74657;DHT22;63185;45.642;13.764;2023-03-31T09:32:25;18.30;61.50
74657;DHT22;63185;45.642;13.764;2023-03-31T09:34:56;18.10;62.60
74657;DHT22;63185;45.642;13.764;2023-03-31T09:37:29;17.80;63.10
74657;DHT22;63185;45.642;13.764;2023-03-31T09:39:58;17.60;63.70
74657;DHT22;63185;45.642;13.764;2023-03-31T09:42:24;17.50;64.30
74657;DHT22;63185;45.642;13.764;2023-03-31T09:44:50;17.40;64.70
74657;DHT22;63185;45.642;13.764;2023-03-31T09:47:20;17.30;64.30
74657;DHT22;63185;45.642;13.764;2023-03-31T09:49:49;17.10;64.60
74657;DHT22;63185;45.642;13.764;2023-03-31T09:52:32;16.90;64.80
74657;DHT22;63185;45.642;13.764;2023-03-31T09:55:06;16.80;65.10
74657;DHT22;63185;45.642;13.764;2023-03-31T09:57:40;16.70;64.80
74657;DHT22;63185;45.642;13.764;2023-03-31T10:05:23;16.60;64.70
74657;DHT22;63185;45.642;13.764;2023-03-31T10:07:50;16.50;64.90
74657;DHT22;63185;45.642;13.764;2023-03-31T10:10:32;16.40;65.20
74657;DHT22;63185;45.642;13.764;2023-03-31T10:12:59;16.40;64.80
74657;DHT22;63185;45.642;13.764;2023-03-31T10:15:26;16.50;63.40
74657;DHT22;63185;45.642;13.764;2023-03-31T10:17:53;16.60;62.70
74657;DHT22;63185;45.642;13.764;2023-03-31T10:20:38;16.60;62.00
74657;DHT22;63185;45.642;13.764;2023-03-31T10:23:28;16.80;60.90
74657;DHT22;63185;45.642;13.764;2023-03-31T10:25:54;16.90;60.50
74657;DHT22;63185;45.642;13.764;2023-03-31T10:28:20;17.10;59.80
74657;DHT22;63185;45.642;13.764;2023-03-31T10:30:55;17.30;58.30
74657;DHT22;63185;45.642;13.764;2023-03-31T10:33:25;17.50;56.90
74657;DHT22;63185;45.642;13.764;2023-03-31T10:36:44;17.60;55.50
74657;DHT22;63185;45.642;13.764;2023-03-31T10:38:49;17.70;55.10
74657;DHT22;63185;45.642;13.764;2023-03-31T10:41:24;17.80;54.00
74657;DHT22;63185;45.642;13.764;2023-03-31T10:43:56;17.90;52.50
74657;DHT22;63185;45.642;13.764;2023-03-31T10:46:49;18.10;52.30
74657;DHT22;63185;45.642;13.764;2023-03-31T10:51:51;18.00;52.80
74657;DHT22;63185;45.642;13.764;2023-03-31T10:54:17;18.10;52.60
74657;DHT22;63185;45.642;13.764;2023-03-31T10:56:50;18.10;52.50
74657;DHT22;63185;45.642;13.764;2023-03-31T11:05:33;18.30;53.70
74657;DHT22;63185;45.642;13.764;2023-03-31T11:11:06;18.20;55.30
74657;DHT22;63185;45.642;13.764;2023-03-31T11:13:55;18.00;55.40
74657;DHT22;63185;45.642;13.764;2023-03-31T11:19:15;17.80;56.00
74657;DHT22;63185;45.642;13.764;2023-03-31T11:22:14;17.50;56.00
74657;DHT22;63185;45.642;13.764;2023-03-31T11:27:59;17.70;56.70
74657;DHT22;63185;45.642;13.764;2023-03-31T11:39:27;17.70;57.50
74657;DHT22;63185;45.642;13.764;2023-03-31T11:42:01;17.50;57.30
74657;DHT22;63185;45.642;13.764;2023-03-31T11:44:35;17.30;57.20
74657;DHT22;63185;45.642;13.764;2023-03-31T11:47:09;17.40;57.40
74657;DHT22;63185;45.642;13.764;2023-03-31T11:49:40;17.40;58.10
74657;DHT22;63185;45.642;13.764;2023-03-31T11:52:16;17.30;58.90
74657;DHT22;63185;45.642;13.764;2023-03-31T11:54:55;17.40;59.00
74657;DHT22;63185;45.642;13.764;2023-03-31T12:02:54;17.40;59.50
74657;DHT22;63185;45.642;13.764;2023-03-31T12:05:22;17.20;60.60
74657;DHT22;63185;45.642;13.764;2023-03-31T12:08:01;17.30;60.30
74657;DHT22;63185;45.642;13.764;2023-03-31T12:10:30;17.20;60.80
74657;DHT22;63185;45.642;13.764;2023-03-31T12:15:45;17.30;60.20
74657;DHT22;63185;45.642;13.764;2023-03-31T12:18:16;17.30;59.70
74657;DHT22;63185;45.642;13.764;2023-03-31T12:23:22;17.40;60.10
74657;DHT22;63185;45.642;13.764;2023-03-31T12:29:05;17.30;60.10
74657;DHT22;63185;45.642;13.764;2023-03-31T12:31:41;17.60;60.20
74657;DHT22;63185;45.642;13.764;2023-03-31T12:34:12;17.50;60.20
74657;DHT22;63185;45.642;13.764;2023-03-31T12:45:23;17.60;59.10
74657;DHT22;63185;45.642;13.764;2023-03-31T12:55:49;17.80;58.90
74657;DHT22;63185;45.642;13.764;2023-03-31T13:06:03;17.90;57.70
74657;DHT22;63185;45.642;13.764;2023-03-31T13:08:51;18.00;57.80
74657;DHT22;63185;45.642;13.764;2023-03-31T13:14:12;18.10;57.40
74657;DHT22;63185;45.642;13.764;2023-03-31T13:16:39;18.20;56.40
74657;DHT22;63185;45.642;13.764;2023-03-31T13:19:05;18.20;56.60
74657;DHT22;63185;45.642;13.764;2023-03-31T13:22:00;18.20;56.30
74657;DHT22;63185;45.642;13.764;2023-03-31T13:24:27;18.20;56.30
74657;DHT22;63185;45.642;13.764;2023-03-31T13:26:55;18.10;57.00
74657;DHT22;63185;45.642;13.764;2023-03-31T13:29:38;18.10;56.50
74657;DHT22;63185;45.642;13.764;2023-03-31T13:32:06;18.20;56.40
74657;DHT22;63185;45.642;13.764;2023-03-31T13:34:58;17.90;56.30
74657;DHT22;63185;45.642;13.764;2023-03-31T13:37:41;17.60;57.10
74657;DHT22;63185;45.642;13.764;2023-03-31T14:06:01;17.30;58.70
74657;DHT22;63185;45.642;13.764;2023-03-31T14:14:03;17.20;58.90
74657;DHT22;63185;45.642;13.764;2023-03-31T14:16:32;17.10;58.30
74657;DHT22;63185;45.642;13.764;2023-03-31T14:19:36;17.20;58.80
74657;DHT22;63185;45.642;13.764;2023-03-31T14:31:20;17.30;58.80
74657;DHT22;63185;45.642;13.764;2023-03-31T14:37:01;17.30;59.00
74657;DHT22;63185;45.642;13.764;2023-03-31T14:39:39;17.20;59.00
74657;DHT22;63185;45.642;13.764;2023-03-31T14:42:10;17.10;59.90
74657;DHT22;63185;45.642;13.764;2023-03-31T14:44:37;17.10;59.20
74657;DHT22;63185;45.642;13.764;2023-03-31T14:47:05;17.30;58.80
74657;DHT22;63185;45.642;13.764;2023-03-31T14:49:36;17.20;58.20
74657;DHT22;63185;45.642;13.764;2023-03-31T14:52:18;17.20;58.40
74657;DHT22;63185;45.642;13.764;2023-03-31T14:54:45;17.20;58.40
74657;DHT22;63185;45.642;13.764;2023-03-31T14:57:19;17.30;57.50
74657;DHT22;63185;45.642;13.764;2023-03-31T14:59:49;17.20;58.40
74657;DHT22;63185;45.642;13.764;2023-03-31T15:02:20;17.20;58.50
74657;DHT22;63185;45.642;13.764;2023-03-31T15:04:48;17.20;58.80
74657;DHT22;63185;45.642;13.764;2023-03-31T15:07:16;17.20;58.50
74657;DHT22;63185;45.642;13.764;2023-03-31T15:09:47;17.10;58.90
74657;DHT22;63185;45.642;13.764;2023-03-31T15:12:14;17.20;58.40
74657;DHT22;63185;45.642;13.764;2023-03-31T15:14:45;17.20;58.40
74657;DHT22;63185;45.642;13.764;2023-03-31T15:17:28;17.20;58.10
74657;DHT22;63185;45.642;13.764;2023-03-31T15:19:58;17.10;58.50
74657;DHT22;63185;45.642;13.764;2023-03-31T15:22:27;17.10;58.60
74657;DHT22;63185;45.642;13.764;2023-03-31T15:24:53;17.20;58.70
74657;DHT22;63185;45.642;13.764;2023-03-31T15:27:35;17.20;58.90
74657;DHT22;63185;45.642;13.764;2023-03-31T15:30:06;17.30;58.40
74657;DHT22;63185;45.642;13.764;2023-03-31T15:32:35;17.10;58.90
74657;DHT22;63185;45.642;13.764;2023-03-31T15:35:02;17.20;59.00
74657;DHT22;63185;45.642;13.764;2023-03-31T15:37:39;17.30;58.70
74657;DHT22;63185;45.642;13.764;2023-03-31T15:40:26;17.20;58.80
74657;DHT22;63185;45.642;13.764;2023-03-31T15:48:02;17.20;59.50
74657;DHT22;63185;45.642;13.764;2023-03-31T15:50:28;17.10;59.90
74657;DHT22;63185;45.642;13.764;2023-03-31T15:52:55;17.10;59.90
74657;DHT22;63185;45.642;13.764;2023-03-31T15:55:27;17.10;59.90
74657;DHT22;63185;45.642;13.764;2023-03-31T15:57:54;17.10;60.20
74657;DHT22;63185;45.642;13.764;2023-03-31T16:03:04;17.10;60.00
74657;DHT22;63185;45.642;13.764;2023-03-31T16:05:47;17.10;60.00
74657;DHT22;63185;45.642;13.764;2023-03-31T16:08:19;17.10;60.20
74657;DHT22;63185;45.642;13.764;2023-03-31T16:10:48;17.10;60.40
74657;DHT22;63185;45.642;13.764;2023-03-31T16:13:20;17.10;60.30
74657;DHT22;63185;45.642;13.764;2023-03-31T16:15:49;17.10;60.50
74657;DHT22;63185;45.642;13.764;2023-03-31T16:18:46;17.00;60.80
74657;DHT22;63185;45.642;13.764;2023-03-31T16:21:13;17.00;60.70
74657;DHT22;63185;45.642;13.764;2023-03-31T16:23:51;17.00;60.80
74657;DHT22;63185;45.642;13.764;2023-03-31T16:26:24;16.90;61.00
74657;DHT22;63185;45.642;13.764;2023-03-31T16:28:53;17.00;60.80
74657;DHT22;63185;45.642;13.764;2023-03-31T16:31:42;17.00;60.70
74657;DHT22;63185;45.642;13.764;2023-03-31T16:34:09;16.90;60.90
74657;DHT22;63185;45.642;13.764;2023-03-31T16:36:35;16.90;60.80
74657;DHT22;63185;45.642;13.764;2023-03-31T16:39:02;17.00;60.90
74657;DHT22;63185;45.642;13.764;2023-03-31T16:41:33;17.00;61.10
74657;DHT22;63185;45.642;13.764;2023-03-31T16:44:00;17.00;61.30
74657;DHT22;63185;45.642;13.764;2023-03-31T16:46:26;16.90;61.50
74657;DHT22;63185;45.642;13.764;2023-03-31T16:48:52;16.90;61.70
74657;DHT22;63185;45.642;13.764;2023-03-31T16:51:18;16.90;61.90
74657;DHT22;63185;45.642;13.764;2023-03-31T16:53:45;16.90;61.80
74657;DHT22;63185;45.642;13.764;2023-03-31T16:56:12;16.90;62.10
74657;DHT22;63185;45.642;13.764;2023-03-31T16:58:39;16.80;62.20
74657;DHT22;63185;45.642;13.764;2023-03-31T17:01:05;16.80;62.80
74657;DHT22;63185;45.642;13.764;2023-03-31T17:03:32;16.70;63.20
74657;DHT22;63185;45.642;13.764;2023-03-31T17:06:04;16.60;63.50
74657;DHT22;63185;45.642;13.764;2023-03-31T17:08:30;16.60;64.20
74657;DHT22;63185;45.642;13.764;2023-03-31T17:11:02;16.50;65.00
74657;DHT22;63185;45.642;13.764;2023-03-31T17:13:29;16.40;66.30
74657;DHT22;63185;45.642;13.764;2023-03-31T17:15:55;16.30;67.50
74657;DHT22;63185;45.642;13.764;2023-03-31T17:18:21;16.20;68.90
74657;DHT22;63185;45.642;13.764;2023-03-31T17:20:46;16.20;70.20
74657;DHT22;63185;45.642;13.764;2023-03-31T17:23:12;16.10;71.20
74657;DHT22;63185;45.642;13.764;2023-03-31T17:25:46;16.00;71.30
74657;DHT22;63185;45.642;13.764;2023-03-31T17:28:11;15.90;72.70
74657;DHT22;63185;45.642;13.764;2023-03-31T17:30:37;15.90;74.30
74657;DHT22;63185;45.642;13.764;2023-03-31T17:33:03;15.80;73.80
74657;DHT22;63185;45.642;13.764;2023-03-31T17:35:29;15.80;73.70
74657;DHT22;63185;45.642;13.764;2023-03-31T17:37:55;15.80;74.70
74657;DHT22;63185;45.642;13.764;2023-03-31T17:40:22;15.80;75.50
74657;DHT22;63185;45.642;13.764;2023-03-31T17:42:48;15.80;75.50
74657;DHT22;63185;45.642;13.764;2023-03-31T17:45:15;15.80;75.80
74657;DHT22;63185;45.642;13.764;2023-03-31T17:47:41;15.80;76.60
74657;DHT22;63185;45.642;13.764;2023-03-31T17:50:08;15.70;77.20
74657;DHT22;63185;45.642;13.764;2023-03-31T17:52:34;15.60;77.40
74657;DHT22;63185;45.642;13.764;2023-03-31T17:55:01;15.70;77.10
74657;DHT22;63185;45.642;13.764;2023-03-31T17:57:29;15.70;77.60
74657;DHT22;63185;45.642;13.764;2023-03-31T17:59:54;15.60;77.60
74657;DHT22;63185;45.642;13.764;2023-03-31T18:02:21;15.60;77.90
74657;DHT22;63185;45.642;13.764;2023-03-31T18:04:47;15.50;77.90
74657;DHT22;63185;45.642;13.764;2023-03-31T18:07:14;15.50;77.50
74657;DHT22;63185;45.642;13.764;2023-03-31T18:09:42;15.50;77.50
74657;DHT22;63185;45.642;13.764;2023-03-31T18:12:08;15.60;78.10
74657;DHT22;63185;45.642;13.764;2023-03-31T18:14:34;15.60;78.20
74657;DHT22;63185;45.642;13.764;2023-03-31T18:16:59;15.60;79.00
74657;DHT22;63185;45.642;13.764;2023-03-31T18:19:26;15.50;79.30
74657;DHT22;63185;45.642;13.764;2023-03-31T18:21:51;15.50;79.60
74657;DHT22;63185;45.642;13.764;2023-03-31T18:24:17;15.50;79.80
74657;DHT22;63185;45.642;13.764;2023-03-31T18:26:45;15.40;79.60
74657;DHT22;63185;45.642;13.764;2023-03-31T18:29:11;15.30;79.80
74657;DHT22;63185;45.642;13.764;2023-03-31T18:31:37;15.30;80.10
74657;DHT22;63185;45.642;13.764;2023-03-31T18:34:02;15.30;79.90
74657;DHT22;63185;45.642;13.764;2023-03-31T18:36:28;15.40;79.70
74657;DHT22;63185;45.642;13.764;2023-03-31T18:38:54;15.40;79.50